Time;durP1;ratioP1;P1;durP2;ratioP2;P2;SDS_P1;SDS_P2;PMS_P1;PMS_P2;Temp;Humidity;BMP_temperature;BMP_pressure;BME280_temperature;BME280_humidity;BME280_pressure;Samples;Min_cycle;Max_cycle;Signal;HPM_P1;HPM_P2
2023/07/07 00:00:18;;;;;;;4.43;1.55;;;21.90;78.80;;;;;;5092309;28;20052;-40
2023/07/07 00:02:45;;;;;;;3.13;1.60;;;20.30;78.80;;;;;;5092180;28;20073;-41
2023/07/07 00:05:11;;;;;;;1.80;1.42;;;20.20;63.50;;;;;;5091866;28;20052;-40
2023/07/07 00:07:38;;;;;;;2.33;1.70;;;;;;;;;;5092135;28;20044;-37
2023/07/07 00:10:06;;;;;;;1.50;1.30;;;20.70;78.20;;;;;;5091321;28;20047;-39
2023/07/07 00:12:34;;;;;;;3.80;1.60;;;21.10;78.40;;;;;;5092092;28;20044;-41
2023/07/07 00:15:02;;;;;;;2.85;1.58;;;20.90;79.10;;;;;;5092042;28;20090;-41
2023/07/07 00:17:29;;;;;;;2.03;1.30;;;20.60;75.50;;;;;;5092081;28;20082;-40
2023/07/07 00:19:55;;;;;;;2.05;1.50;;;21.40;78.50;;;;;;5091945;28;20131;-41
2023/07/07 00:22:22;;;;;;;2.40;1.50;;;19.70;77.60;;;;;;5091637;28;20048;-40
2023/07/07 00:24:49;;;;;;;2.17;1.58;;;;;;;;;;5091862;28;20074;-40
2023/07/07 00:27:16;;;;;;;2.33;1.50;;;21.20;78.40;;;;;;5091177;28;20123;-40
2023/07/07 00:29:44;;;;;;;2.08;1.60;;;21.30;70.10;;;;;;5091534;28;20511;-39
2023/07/07 00:32:11;;;;;;;1.63;1.42;;;20.80;68.10;;;;;;5091688;28;20131;-37
2023/07/07 00:34:38;;;;;;;2.17;1.45;;;21.70;79.40;;;;;;5091955;28;20497;-40
2023/07/07 00:37:05;;;;;;;3.20;1.65;;;20.70;78.10;;;;;;5091067;28;20135;-38
2023/07/07 00:39:32;;;;;;;2.05;1.52;;;21.10;78.30;;;;;;5091742;28;20130;-41
2023/07/07 00:41:58;;;;;;;1.77;1.40;;;20.90;78.10;;;;;;5082648;28;20127;-40
2023/07/07 00:44:31;;;;;;;1.80;1.40;;;21.20;66.60;;;;;;5071442;28;20417;-40
2023/07/07 00:46:59;;;;;;;2.28;1.40;;;21.50;77.00;;;;;;5071424;28;20055;-38
2023/07/07 00:49:27;;;;;;;2.22;1.60;;;19.90;73.90;;;;;;5071497;28;20420;-41
2023/07/07 00:51:56;;;;;;;1.85;1.40;;;20.60;78.10;;;;;;5071245;28;20509;-40
2023/07/07 00:54:25;;;;;;;2.60;1.70;;;19.80;77.70;;;;;;5082453;28;20131;-41
2023/07/07 00:56:52;;;;;;;1.83;1.50;;;20.10;62.20;;;;;;5091647;28;20054;-38
2023/07/07 00:59:20;;;;;;;2.17;1.40;;;20.50;78.00;;;;;;5076009;28;20048;-40
2023/07/07 01:01:47;;;;;;;2.33;1.65;;;;;;;;;;5091637;28;20131;-38
2023/07/07 01:04:17;;;;;;;2.15;1.73;;;21.10;75.30;;;;;;5091152;28;20121;-41
2023/07/07 01:06:47;;;;;;;3.17;1.80;;;21.50;62.00;;;;;;5091585;28;20059;-37
2023/07/07 01:09:14;;;;;;;1.90;1.60;;;;;;;;;;5091407;28;20094;-37
2023/07/07 01:11:41;;;;;;;2.08;1.45;;;;;;;;;;5091533;28;20127;-40
2023/07/07 01:14:10;;;;;;;2.35;1.63;;;21.10;67.50;;;;;;5093391;28;20130;-38
2023/07/07 01:16:47;;;;;;;1.95;1.58;;;20.70;78.10;;;;;;5095343;28;20048;-38
2023/07/07 01:19:44;;;;;;;3.10;1.73;;;20.00;66.10;;;;;;5095285;28;20127;-36
2023/07/07 01:22:21;;;;;;;2.75;1.70;;;20.40;78.30;;;;;;5094691;28;20050;-40
2023/07/07 01:24:56;;;;;;;2.28;1.67;;;21.00;78.30;;;;;;5095168;28;20043;-41
2023/07/07 01:27:32;;;;;;;3.08;1.60;;;20.70;61.50;;;;;;5095433;28;20563;-40
2023/07/07 01:30:29;;;;;;;2.35;1.60;;;20.70;69.30;;;;;;5094062;28;20048;-39
2023/07/07 01:32:55;;;;;;;2.10;1.73;;;19.90;78.10;;;;;;5074435;28;20102;-38
2023/07/07 01:35:23;;;;;;;2.05;1.75;;;20.70;61.60;;;;;;5074473;28;20127;-40
2023/07/07 01:37:54;;;;;;;1.73;1.50;;;21.40;63.20;;;;;;5086844;28;20135;-39
2023/07/07 01:40:21;;;;;;;3.35;1.60;;;;;;;;;;5074784;28;20148;-37
2023/07/07 01:42:59;;;;;;;3.08;1.73;;;20.50;78.00;;;;;;5074478;28;20055;-41
2023/07/07 01:45:31;;;;;;;3.03;1.70;;;20.10;72.50;;;;;;5074594;28;20058;-38
2023/07/07 01:48:07;;;;;;;2.08;1.70;;;20.60;77.20;;;;;;5075477;28;20147;-40
2023/07/07 01:50:34;;;;;;;2.10;1.80;;;20.90;79.10;;;;;;5085079;28;20518;-41
2023/07/07 01:53:04;;;;;;;1.92;1.73;;;20.10;77.80;;;;;;5094548;28;20054;-39
2023/07/07 01:55:31;;;;;;;2.13;1.80;;;20.30;78.00;;;;;;5094505;28;20048;-41
2023/07/07 01:57:59;;;;;;;2.10;1.80;;;21.00;78.40;;;;;;5094483;28;20154;-40
2023/07/07 02:00:28;;;;;;;2.22;1.70;;;21.10;78.70;;;;;;5095019;28;20134;-39
2023/07/07 02:02:56;;;;;;;2.15;1.80;;;20.00;77.80;;;;;;5085442;28;20047;-41
2023/07/07 02:05:23;;;;;;;2.50;1.73;;;20.70;78.60;;;;;;5074153;28;20048;-41
2023/07/07 02:07:50;;;;;;;2.35;1.63;;;;;;;;;;5073996;28;20052;-37
2023/07/07 02:10:17;;;;;;;2.55;1.70;;;20.90;78.30;;;;;;5074067;28;20072;-41
2023/07/07 02:12:44;;;;;;;2.75;1.60;;;20.60;78.10;;;;;;5073831;28;20672;-41
2023/07/07 02:15:11;;;;;;;2.67;1.98;;;21.60;78.70;;;;;;5073914;28;20478;-40
2023/07/07 02:17:39;;;;;;;1.95;1.50;;;20.70;62.80;;;;;;5073980;28;20127;-39
2023/07/07 02:20:08;;;;;;;2.10;1.88;;;20.60;61.40;;;;;;5079241;28;20056;-38
2023/07/07 02:22:37;;;;;;;2.28;1.70;;;20.90;79.10;;;;;;5079737;28;20072;-41
2023/07/07 02:25:04;;;;;;;2.30;1.70;;;19.70;65.10;;;;;;5073782;28;20559;-40
2023/07/07 02:27:30;;;;;;;2.78;1.95;;;21.30;65.40;;;;;;5073761;28;20049;-39
2023/07/07 02:29:57;;;;;;;2.00;1.70;;;20.10;76.70;;;;;;5084596;28;20048;-41
2023/07/07 02:32:25;;;;;;;2.28;1.90;;;20.50;78.20;;;;;;5093079;28;20043;-41
2023/07/07 02:34:57;;;;;;;2.20;1.67;;;20.60;61.40;;;;;;5093703;28;20516;-37
2023/07/07 02:37:23;;;;;;;2.00;1.70;;;21.40;78.50;;;;;;5093258;28;20109;-41
2023/07/07 02:39:50;;;;;;;2.13;1.77;;;20.20;77.10;;;;;;5093460;28;20131;-40
2023/07/07 02:42:17;;;;;;;2.63;1.83;;;20.20;77.00;;;;;;5093477;28;20058;-40
2023/07/07 02:44:44;;;;;;;2.95;2.15;;;20.00;77.90;;;;;;5093792;28;20132;-40
2023/07/07 02:47:11;;;;;;;2.20;1.80;;;;;;;;;;5092760;28;20472;-38
2023/07/07 02:49:38;;;;;;;2.15;1.83;;;20.70;78.60;;;;;;5093560;28;20056;-40
2023/07/07 02:52:07;;;;;;;3.20;1.70;;;21.30;79.50;;;;;;5093283;28;20051;-40
2023/07/07 02:54:34;;;;;;;2.95;2.10;;;20.50;78.10;;;;;;5093301;28;20135;-40
2023/07/07 02:57:01;;;;;;;2.20;1.80;;;20.70;78.40;;;;;;5093816;28;20146;-41
2023/07/07 02:59:28;;;;;;;2.78;2.10;;;20.20;64.20;;;;;;5093610;28;20131;-41
2023/07/07 03:01:54;;;;;;;2.38;1.85;;;20.60;78.30;;;;;;5092474;28;20114;-41
2023/07/07 03:04:24;;;;;;;2.78;2.13;;;;;;;;;;5082252;28;20048;-36
2023/07/07 03:06:51;;;;;;;2.58;1.77;;;19.80;77.80;;;;;;5072845;28;20055;-40
2023/07/07 03:09:19;;;;;;;3.08;2.20;;;19.70;61.00;;;;;;5073272;28;20136;-39
2023/07/07 03:11:46;;;;;;;2.53;1.80;;;;;;;;;;5092367;28;20134;-38
2023/07/07 03:14:15;;;;;;;2.53;2.08;;;21.00;78.50;;;;;;5092753;28;20043;-39
2023/07/07 03:16:47;;;;;;;2.17;1.98;;;;;;;;;;5092962;28;20131;-40
2023/07/07 03:19:14;;;;;;;2.28;1.90;;;20.50;78.10;;;;;;5091517;28;20134;-41
2023/07/07 03:21:40;;;;;;;2.55;2.28;;;20.40;75.60;;;;;;5092767;28;20127;-39
2023/07/07 03:24:07;;;;;;;2.58;2.00;;;20.60;78.60;;;;;;5092625;28;20127;-40
2023/07/07 03:26:35;;;;;;;2.63;1.98;;;20.50;61.40;;;;;;5083722;28;20060;-39
2023/07/07 03:29:02;;;;;;;2.70;2.33;;;21.20;78.60;;;;;;5075824;28;20127;-39
2023/07/07 03:31:30;;;;;;;2.78;2.10;;;20.40;74.10;;;;;;5092944;28;20218;-38
2023/07/07 03:33:57;;;;;;;2.20;2.00;;;20.50;61.40;;;;;;5084380;28;20124;-36
2023/07/07 03:36:25;;;;;;;2.42;2.20;;;20.10;78.00;;;;;;5076274;28;20044;-40
2023/07/07 03:38:52;;;;;;;3.05;2.15;;;21.30;78.90;;;;;;5092731;28;20124;-40
2023/07/07 03:41:20;;;;;;;2.58;2.08;;;21.20;69.70;;;;;;5091737;28;20052;-39
2023/07/07 03:43:48;;;;;;;2.78;2.08;;;20.40;61.30;;;;;;5092144;28;20131;-36
2023/07/07 03:46:15;;;;;;;2.83;1.98;;;;;;;;;;5092400;28;20135;-36
2023/07/07 03:48:42;;;;;;;2.30;2.10;;;21.60;78.80;;;;;;5092239;28;20062;-40
2023/07/07 03:51:09;;;;;;;2.45;2.03;;;21.00;78.50;;;;;;5092606;28;20134;-40
2023/07/07 03:53:36;;;;;;;2.78;2.00;;;20.20;78.80;;;;;;5092192;28;20134;-41
2023/07/07 03:56:04;;;;;;;2.45;2.13;;;;;;;;;;5084168;28;20052;-37
2023/07/07 03:58:31;;;;;;;3.05;2.55;;;20.50;67.00;;;;;;5072159;28;20123;-36
2023/07/07 04:01:02;;;;;;;3.70;2.47;;;21.40;78.70;;;;;;5072008;28;20127;-40
2023/07/07 04:03:30;;;;;;;3.00;2.35;;;20.60;79.20;;;;;;5071593;28;20421;-40
2023/07/07 04:05:57;;;;;;;2.67;2.20;;;20.80;78.70;;;;;;5071969;28;20452;-40
2023/07/07 04:08:24;;;;;;;2.50;2.30;;;20.10;78.80;;;;;;5072089;28;20049;-40
2023/07/07 04:10:58;;;;;;;3.13;2.33;;;20.80;78.30;;;;;;5072535;28;20048;-40
2023/07/07 04:13:25;;;;;;;3.13;2.25;;;20.40;78.60;;;;;;5071501;28;20580;-40
2023/07/07 04:15:58;;;;;;;2.60;2.40;;;21.30;61.90;;;;;;5071554;28;20516;-39
2023/07/07 04:18:26;;;;;;;2.53;2.10;;;20.90;78.50;;;;;;5072100;28;20052;-41
2023/07/07 04:20:53;;;;;;;2.50;2.30;;;20.00;78.90;;;;;;5071868;28;20136;-39
2023/07/07 04:23:20;;;;;;;2.88;2.30;;;;;;;;;;5071381;28;20070;-37
2023/07/07 04:25:47;;;;;;;2.78;2.50;;;21.50;78.80;;;;;;5071693;28;20131;-40
2023/07/07 04:28:13;;;;;;;3.90;2.60;;;20.20;78.10;;;;;;5071384;28;20052;-40
2023/07/07 04:30:40;;;;;;;2.45;2.25;;;20.60;66.50;;;;;;5088749;28;20048;-38
2023/07/07 04:33:07;;;;;;;2.65;2.40;;;20.80;66.00;;;;;;5090787;28;20484;-40
2023/07/07 04:35:37;;;;;;;3.47;2.50;;;20.40;78.60;;;;;;5091628;28;20055;-41
2023/07/07 04:38:05;;;;;;;2.83;2.53;;;20.60;78.40;;;;;;5091315;28;20155;-41
2023/07/07 04:40:33;;;;;;;2.83;2.25;;;;;;;;;;5091257;28;20127;-37
2023/07/07 04:42:59;;;;;;;2.55;2.20;;;20.40;79.00;;;;;;5091643;28;20048;-31
2023/07/07 04:45:26;;;;;;;2.63;2.10;;;20.60;78.40;;;;;;5091708;28;20131;-31
2023/07/07 04:47:53;;;;;;;2.97;2.50;;;20.30;67.00;;;;;;5093845;28;20122;-33
2023/07/07 04:50:20;;;;;;;2.80;2.50;;;20.10;78.00;;;;;;5096097;28;20051;-31
2023/07/07 04:52:48;;;;;;;4.55;2.50;;;20.00;78.00;;;;;;5095050;28;20044;-31
2023/07/07 04:55:14;;;;;;;2.95;2.40;;;20.70;78.40;;;;;;5095558;28;20131;-31
2023/07/07 04:57:41;;;;;;;3.53;2.40;;;20.30;72.60;;;;;;5082656;28;20053;-31
2023/07/07 05:00:09;;;;;;;4.05;2.60;;;20.00;78.40;;;;;;5074909;28;20860;-30
2023/07/07 05:02:36;;;;;;;3.40;2.58;;;20.10;73.80;;;;;;5075392;28;20132;-31
2023/07/07 05:05:03;;;;;;;4.40;2.60;;;20.00;78.40;;;;;;5075041;28;20493;-33
2023/07/07 05:07:30;;;;;;;3.47;2.63;;;20.30;69.80;;;;;;5075157;28;20498;-31
2023/07/07 05:09:58;;;;;;;2.97;2.67;;;20.50;74.40;;;;;;5074823;28;20468;-31
2023/07/07 05:12:24;;;;;;;2.65;2.45;;;19.90;78.10;;;;;;5076233;28;20123;-31
2023/07/07 05:14:52;;;;;;;3.30;2.60;;;20.30;61.30;;;;;;5075143;28;20136;-36
2023/07/07 05:17:19;;;;;;;3.22;2.60;;;20.00;78.20;;;;;;5075355;28;20468;-31
2023/07/07 05:19:46;;;;;;;2.75;2.50;;;;;;;;;;5074930;28;20144;-36
2023/07/07 05:22:12;;;;;;;4.63;2.75;;;20.30;78.60;;;;;;5074703;28;20408;-32
2023/07/07 05:24:39;;;;;;;3.00;2.55;;;20.60;78.80;;;;;;5076125;28;20062;-31
2023/07/07 05:27:07;;;;;;;2.97;2.42;;;20.30;61.40;;;;;;5095031;28;20484;-34
2023/07/07 05:29:34;;;;;;;2.50;2.30;;;;;;;;;;5093411;28;20127;-31
2023/07/07 05:32:01;;;;;;;2.78;2.47;;;;;;;;;;5094871;28;20134;-39
2023/07/07 05:34:28;;;;;;;2.97;2.60;;;20.40;71.40;;;;;;5094686;28;20044;-31
2023/07/07 05:36:55;;;;;;;3.13;2.70;;;20.60;78.80;;;;;;5094238;28;20055;-31
2023/07/07 05:39:22;;;;;;;3.75;2.72;;;21.40;79.20;;;;;;5095030;28;20410;-30
2023/07/07 05:41:49;;;;;;;3.60;2.70;;;;;;;;;;5094954;28;20131;-35
2023/07/07 05:44:17;;;;;;;3.90;2.70;;;19.30;77.60;;;;;;5093780;28;20139;-31
2023/07/07 05:46:44;;;;;;;3.67;2.72;;;20.50;78.50;;;;;;5075170;28;20132;-31
2023/07/07 05:49:11;;;;;;;3.08;2.78;;;;;;;;;;5074160;28;20082;-33
2023/07/07 05:51:38;;;;;;;3.35;2.80;;;20.30;78.80;;;;;;5080555;28;20127;-32
2023/07/07 05:54:05;;;;;;;4.47;2.95;;;;;;;;;;5082748;28;20100;-35
2023/07/07 05:56:31;;;;;;;3.10;2.70;;;20.10;79.00;;;;;;5084284;28;20151;-31
2023/07/07 05:58:58;;;;;;;3.42;2.58;;;20.00;78.60;;;;;;5079506;28;20110;-31
2023/07/07 06:01:26;;;;;;;3.13;2.75;;;20.30;61.30;;;;;;5078208;28;20054;-37
2023/07/07 06:03:53;;;;;;;3.92;2.92;;;19.30;67.90;;;;;;5073325;28;20051;-32
2023/07/07 06:06:20;;;;;;;3.05;2.65;;;19.90;78.50;;;;;;5072793;28;20434;-31
2023/07/07 06:08:47;;;;;;;3.08;2.72;;;19.80;78.80;;;;;;5077484;28;20489;-30
2023/07/07 06:11:13;;;;;;;3.55;2.60;;;19.90;68.50;;;;;;5077393;28;20131;-32
2023/07/07 06:13:40;;;;;;;3.08;2.60;;;19.20;78.00;;;;;;5078065;28;20455;-31
2023/07/07 06:16:07;;;;;;;3.20;2.90;;;20.20;70.20;;;;;;5082869;28;20453;-31
2023/07/07 06:18:35;;;;;;;3.47;2.40;;;20.00;64.70;;;;;;5080964;28;20127;-34
2023/07/07 06:21:02;;;;;;;3.90;3.08;;;20.90;75.60;;;;;;5082112;28;20051;-31
2023/07/07 06:23:29;;;;;;;2.88;2.35;;;20.30;78.40;;;;;;5083700;28;20493;-31
2023/07/07 06:25:56;;;;;;;4.15;2.97;;;19.20;63.40;;;;;;5083517;28;20049;-35
2023/07/07 06:28:22;;;;;;;2.70;2.50;;;21.30;79.00;;;;;;5082247;28;20127;-31
2023/07/07 06:30:49;;;;;;;4.00;3.00;;;19.30;78.40;;;;;;5085744;28;20072;-31
2023/07/07 06:33:16;;;;;;;3.15;2.58;;;20.50;70.20;;;;;;5081955;28;20416;-31
2023/07/07 06:35:44;;;;;;;3.00;2.67;;;19.70;78.30;;;;;;5080421;28;20067;-31
2023/07/07 06:38:11;;;;;;;3.25;2.60;;;20.70;78.40;;;;;;5077257;28;20139;-31
2023/07/07 06:40:37;;;;;;;2.95;2.50;;;20.10;70.10;;;;;;5073469;28;20060;-31
2023/07/07 06:43:04;;;;;;;2.88;2.58;;;19.80;66.90;;;;;;5077878;28;20047;-32
2023/07/07 06:45:31;;;;;;;3.45;2.55;;;;;;;;;;5076876;28;20127;-32
2023/07/07 06:48:00;;;;;;;3.38;2.65;;;;;;;;;;5073471;28;20064;-35
2023/07/07 06:50:31;;;;;;;2.72;2.38;;;19.30;71.90;;;;;;5073472;28;20048;-32
2023/07/07 06:52:59;;;;;;;2.60;2.38;;;20.40;78.40;;;;;;5072946;28;20502;-31
2023/07/07 06:55:26;;;;;;;2.78;2.42;;;21.50;79.00;;;;;;5073240;28;20135;-30
2023/07/07 06:57:53;;;;;;;3.20;2.40;;;;;;;;;;5079124;28;20047;-35
2023/07/07 07:00:21;;;;;;;2.85;2.22;;;20.10;78.10;;;;;;5093199;28;20131;-31
2023/07/07 07:02:48;;;;;;;2.72;2.42;;;21.00;79.00;;;;;;5093270;28;20048;-31
2023/07/07 07:05:15;;;;;;;8.68;2.60;;;;;;;;;;5093337;28;20048;-31
2023/07/07 07:07:42;;;;;;;5.97;2.78;;;19.70;78.90;;;;;;5093717;28;20138;-31
2023/07/07 07:10:10;;;;;;;2.97;2.58;;;20.30;78.40;;;;;;5092371;28;20130;-32
2023/07/07 07:12:37;;;;;;;2.85;2.45;;;;;;;;;;5092610;28;20083;-36
2023/07/07 07:15:05;;;;;;;5.63;2.50;;;20.40;61.60;;;;;;5091300;28;20548;-31
2023/07/07 07:17:31;;;;;;;3.55;1.92;;;20.80;67.60;;;;;;5093233;28;20051;-32
2023/07/07 07:19:58;;;;;;;4.13;2.60;;;19.30;78.00;;;;;;5093138;28;20136;-31
2023/07/07 07:22:25;;;;;;;3.97;2.33;;;20.70;78.70;;;;;;5084772;28;20083;-39
2023/07/07 07:24:52;;;;;;;3.00;2.35;;;20.10;67.50;;;;;;5072594;28;20072;-38
2023/07/07 07:27:20;;;;;;;3.00;2.38;;;21.50;64.00;;;;;;5076743;28;20048;-37
2023/07/07 07:29:46;;;;;;;3.38;2.30;;;20.20;78.70;;;;;;5092354;28;20123;-39
2023/07/07 07:32:13;;;;;;;2.65;2.40;;;20.30;78.80;;;;;;5088638;28;20109;-36
2023/07/07 07:34:40;;;;;;;2.70;2.20;;;20.90;68.70;;;;;;5072339;28;20048;-35
2023/07/07 07:37:07;;;;;;;2.85;2.25;;;20.80;78.70;;;;;;5082650;28;20416;-36
2023/07/07 07:39:34;;;;;;;3.42;2.70;;;21.00;78.80;;;;;;5084980;28;20076;-40
2023/07/07 07:42:00;;;;;;;4.78;2.25;;;20.70;78.80;;;;;;5079978;28;20441;-37
2023/07/07 07:44:28;;;;;;;3.58;2.45;;;20.60;64.30;;;;;;5071860;28;20127;-40
2023/07/07 07:46:56;;;;;;;2.45;2.22;;;20.50;61.70;;;;;;5079231;28;20071;-40
2023/07/07 07:49:23;;;;;;;2.72;2.10;;;20.40;78.30;;;;;;5081890;28;20055;-36
2023/07/07 07:51:50;;;;;;;2.50;2.25;;;;;;;;;;5082790;28;20473;-36
2023/07/07 07:54:18;;;;;;;2.65;2.10;;;20.50;78.30;;;;;;5080780;28;20123;-39
2023/07/07 07:56:45;;;;;;;3.42;2.38;;;;;;;;;;5081424;28;20051;-36
2023/07/07 07:59:11;;;;;;;2.28;2.08;;;20.30;78.60;;;;;;5082944;28;20050;-38
2023/07/07 08:01:39;;;;;;;2.60;2.05;;;20.60;79.10;;;;;;5078238;28;20044;-39
2023/07/07 08:04:06;;;;;;;2.42;1.92;;;20.40;78.10;;;;;;5079512;28;20052;-40
2023/07/07 08:06:33;;;;;;;3.42;1.95;;;20.40;72.00;;;;;;5079392;28;20059;-39
2023/07/07 08:09:00;;;;;;;2.83;2.17;;;;;;;;;;5069547;28;20151;-34
2023/07/07 08:11:50;;;;;;;2.50;2.05;;;21.10;69.70;;;;;;5080890;28;20044;-40
2023/07/07 08:14:20;;;;;;;2.45;2.20;;;20.80;69.20;;;;;;5085423;28;20131;-37
2023/07/07 08:16:47;;;;;;;3.15;2.05;;;20.70;68.20;;;;;;5092075;28;20131;-37
2023/07/07 08:19:14;;;;;;;7.07;2.00;;;20.90;78.60;;;;;;5085714;28;20119;-39
2023/07/07 08:21:41;;;;;;;2.58;1.90;;;21.00;78.50;;;;;;5076592;28;20040;-36
2023/07/07 08:24:08;;;;;;;4.07;2.10;;;20.90;69.00;;;;;;5091315;28;20075;-36
2023/07/07 08:26:35;;;;;;;3.75;2.20;;;20.90;61.70;;;;;;5091537;28;20576;-39
2023/07/07 08:29:03;;;;;;;2.97;1.80;;;21.30;66.60;;;;;;5090908;28;20052;-35
2023/07/07 08:31:31;;;;;;;3.53;2.08;;;20.80;70.10;;;;;;5091789;28;20126;-39
2023/07/07 08:33:58;;;;;;;2.50;1.90;;;21.90;68.50;;;;;;5089614;28;20127;-36
2023/07/07 08:36:24;;;;;;;2.65;1.90;;;21.30;78.10;;;;;;5086917;28;20463;-37
2023/07/07 08:38:51;;;;;;;2.78;2.08;;;22.00;78.00;;;;;;5089253;28;20477;-39
2023/07/07 08:41:18;;;;;;;4.80;2.05;;;;;;;;;;5082911;28;20133;-36
2023/07/07 08:43:45;;;;;;;2.33;1.83;;;21.50;67.20;;;;;;5071393;28;20136;-38
2023/07/07 08:46:18;;;;;;;2.05;1.80;;;21.10;60.60;;;;;;5071320;28;20048;-36
2023/07/07 08:48:50;;;;;;;2.75;2.30;;;21.10;60.60;;;;;;5071287;28;20053;-39
2023/07/07 08:51:18;;;;;;;2.20;1.90;;;20.70;73.40;;;;;;5081777;28;20486;-35
2023/07/07 08:53:50;;;;;;;2.50;1.90;;;21.10;60.40;;;;;;5071082;28;20132;-37
2023/07/07 08:56:20;;;;;;;2.47;2.00;;;21.00;68.10;;;;;;5083184;28;20127;-38
2023/07/07 08:58:53;;;;;;;2.05;1.75;;;22.10;63.40;;;;;;5091794;28;20055;-36
2023/07/07 09:01:27;;;;;;;2.40;1.65;;;21.20;60.20;;;;;;5091561;28;20127;-39
2023/07/07 09:04:02;;;;;;;4.53;2.00;;;21.80;76.10;;;;;;5091477;28;20386;-39
2023/07/07 09:06:36;;;;;;;4.30;1.73;;;21.00;76.10;;;;;;5091575;28;20055;-36
2023/07/07 09:09:08;;;;;;;2.08;1.73;;;21.30;60.00;;;;;;5074526;28;20132;-34
2023/07/07 09:11:40;;;;;;;1.92;1.65;;;21.40;60.00;;;;;;5070291;28;20151;-36
2023/07/07 09:14:07;;;;;;;3.80;1.80;;;21.40;76.50;;;;;;5090142;28;20127;-38
2023/07/07 09:16:34;;;;;;;2.63;1.90;;;21.90;76.60;;;;;;5090601;28;20055;-37
2023/07/07 09:19:05;;;;;;;1.90;1.60;;;21.20;63.30;;;;;;5091473;28;20052;-35
2023/07/07 09:21:36;;;;;;;2.15;1.80;;;21.20;76.90;;;;;;5086913;28;20128;-40
2023/07/07 09:24:07;;;;;;;2.50;1.90;;;21.50;59.70;;;;;;5090248;28;20063;-36
2023/07/07 09:26:34;;;;;;;2.35;1.98;;;21.10;69.90;;;;;;5090719;28;20070;-39
2023/07/07 09:29:00;;;;;;;2.28;1.70;;;22.30;76.70;;;;;;5091245;28;20119;-40
2023/07/07 09:31:30;;;;;;;2.08;1.85;;;21.60;59.60;;;;;;5091245;28;20519;-36
2023/07/07 09:33:57;;;;;;;2.20;1.80;;;21.20;76.00;;;;;;5091735;28;20584;-40
2023/07/07 09:36:28;;;;;;;2.72;1.80;;;21.60;59.50;;;;;;5082493;28;20047;-38
2023/07/07 09:39:01;;;;;;;2.00;1.70;;;21.60;59.50;;;;;;5074447;28;20051;-40
2023/07/07 09:41:33;;;;;;;2.28;1.80;;;21.60;59.40;;;;;;5074405;28;20056;-36
2023/07/07 09:44:12;;;;;;;2.33;1.70;;;22.40;76.40;;;;;;5078512;28;20119;-40
2023/07/07 09:46:40;;;;;;;2.15;1.70;;;22.10;76.80;;;;;;5094565;28;20488;-39
2023/07/07 09:49:10;;;;;;;2.78;1.92;;;21.60;75.90;;;;;;5094640;28;20131;-40
2023/07/07 09:51:42;;;;;;;2.00;1.70;;;22.10;76.30;;;;;;5092101;28;20070;-40
2023/07/07 09:54:10;;;;;;;1.83;1.63;;;21.70;76.40;;;;;;5094418;28;20044;-40
2023/07/07 09:56:42;;;;;;;2.30;1.50;;;21.60;59.50;;;;;;5094591;28;20127;-39
2023/07/07 09:59:13;;;;;;;2.20;1.63;;;21.80;76.40;;;;;;5094642;28;20132;-40
2023/07/07 10:01:43;;;;;;;6.40;1.90;;;21.90;77.10;;;;;;5094453;28;20062;-40
2023/07/07 10:04:12;;;;;;;2.67;1.70;;;21.20;76.30;;;;;;5094104;28;20526;-40
2023/07/07 10:06:42;;;;;;;1.90;1.55;;;21.40;75.70;;;;;;5093396;28;20400;-39
2023/07/07 10:09:10;;;;;;;3.65;1.83;;;21.20;63.40;;;;;;5093895;28;20493;-39
2023/07/07 10:11:38;;;;;;;2.00;1.60;;;21.50;64.90;;;;;;5094463;28;20052;-39
2023/07/07 10:14:06;;;;;;;2.42;1.63;;;21.20;66.60;;;;;;5093728;28;20131;-39
2023/07/07 10:16:37;;;;;;;1.80;1.50;;;20.40;75.40;;;;;;5093832;28;20044;-30
2023/07/07 10:19:05;;;;;;;2.30;1.65;;;21.90;77.10;;;;;;5094273;28;20079;-30
2023/07/07 10:21:32;;;;;;;1.70;1.40;;;22.70;76.70;;;;;;5094329;28;20135;-31
2023/07/07 10:24:00;;;;;;;2.30;1.77;;;21.90;76.60;;;;;;5092359;28;20424;-30
2023/07/07 10:26:27;;;;;;;1.98;1.63;;;20.60;75.50;;;;;;5079247;28;20044;-30
2023/07/07 10:28:55;;;;;;;2.58;1.80;;;21.70;69.60;;;;;;5075962;28;20072;-31
2023/07/07 10:31:24;;;;;;;2.17;1.50;;;21.70;76.20;;;;;;5093973;28;20058;-32
2023/07/07 10:33:51;;;;;;;2.67;1.60;;;21.70;76.10;;;;;;5086386;28;20047;-31
2023/07/07 10:36:18;;;;;;;2.47;1.75;;;22.10;77.20;;;;;;5083619;28;20119;-31
2023/07/07 10:38:46;;;;;;;2.35;1.63;;;;;;;;;;5077470;28;20512;-35
2023/07/07 10:41:14;;;;;;;2.08;1.60;;;21.30;76.80;;;;;;5080379;28;20386;-30
2023/07/07 10:43:40;;;;;;;2.25;1.52;;;21.30;76.40;;;;;;5081259;28;20119;-31
2023/07/07 10:46:10;;;;;;;2.15;1.65;;;21.30;76.30;;;;;;5080999;28;20424;-31
2023/07/07 10:48:39;;;;;;;2.63;2.00;;;22.50;76.70;;;;;;5072794;28;20390;-31
2023/07/07 10:51:10;;;;;;;2.28;1.80;;;22.30;66.40;;;;;;5072374;28;20127;-33
2023/07/07 10:53:46;;;;;;;1.85;1.63;;;21.30;76.00;;;;;;5080421;28;20130;-30
2023/07/07 10:56:24;;;;;;;2.00;1.73;;;21.50;59.70;;;;;;5072355;28;20125;-32
2023/07/07 10:59:13;;;;;;;2.00;1.60;;;21.50;76.10;;;;;;5072581;28;20557;-30
2023/07/07 11:01:44;;;;;;;3.63;1.73;;;21.90;62.60;;;;;;5072754;28;20059;-33
2023/07/07 11:04:20;;;;;;;2.28;1.60;;;21.20;70.70;;;;;;5072047;28;20140;-33
2023/07/07 11:06:52;;;;;;;2.20;1.80;;;21.80;76.30;;;;;;5080986;28;20413;-31
2023/07/07 11:09:29;;;;;;;2.22;1.52;;;21.60;70.00;;;;;;5089392;28;20056;-31
2023/07/07 11:12:01;;;;;;;2.65;1.90;;;21.50;59.70;;;;;;5092160;28;20051;-34
2023/07/07 11:14:35;;;;;;;2.90;1.70;;;21.90;76.40;;;;;;5092769;28;20058;-31
2023/07/07 11:17:08;;;;;;;2.22;1.60;;;21.60;59.70;;;;;;5085179;28;20131;-29
2023/07/07 11:19:44;;;;;;;2.25;1.80;;;21.90;70.70;;;;;;5081721;28;20048;-31
2023/07/07 11:22:16;;;;;;;2.05;1.60;;;21.60;59.70;;;;;;5080850;28;20059;-42
2023/07/07 11:24:46;;;;;;;2.40;1.70;;;21.60;59.70;;;;;;5081647;28;20123;-35
2023/07/07 11:27:42;;;;;;;2.05;1.50;;;22.00;76.80;;;;;;5080496;28;20147;-32
2023/07/07 11:30:15;;;;;;;2.60;1.60;;;21.40;76.10;;;;;;5088335;28;20051;-32
2023/07/07 11:32:45;;;;;;;2.33;1.75;;;20.70;75.70;;;;;;5092463;28;20122;-31
2023/07/07 11:35:25;;;;;;;1.70;1.52;;;22.00;76.70;;;;;;5083159;28;20509;-31
2023/07/07 11:38:02;;;;;;;1.88;1.50;;;21.50;67.90;;;;;;5076519;28;20561;-34
2023/07/07 11:40:54;;;;;;;2.70;1.67;;;21.60;59.80;;;;;;5077568;28;20056;-33
2023/07/07 11:43:36;;;;;;;3.70;1.60;;;21.40;76.30;;;;;;5071823;28;20139;-31
2023/07/07 11:46:15;;;;;;;3.15;1.70;;;21.70;76.30;;;;;;5072224;28;20045;-32
2023/07/07 11:48:47;;;;;;;2.28;1.80;;;21.60;59.80;;;;;;5072349;28;20083;-35
2023/07/07 11:51:26;;;;;;;2.45;1.98;;;22.00;74.60;;;;;;5072001;28;20132;-33
2023/07/07 11:54:28;;;;;;;1.83;1.60;;;21.60;59.80;;;;;;5071364;28;20049;-35
2023/07/07 11:57:02;;;;;;;3.13;1.70;;;21.30;64.80;;;;;;5071738;28;20083;-33
2023/07/07 11:59:43;;;;;;;2.55;1.85;;;21.30;76.40;;;;;;5071679;28;20132;-32
2023/07/07 12:02:11;;;;;;;2.60;1.60;;;21.60;60.00;;;;;;5071862;28;20058;-36
2023/07/07 12:04:40;;;;;;;3.97;1.73;;;21.60;59.80;;;;;;5071709;28;20136;-37
2023/07/07 12:07:10;;;;;;;2.35;1.55;;;20.70;68.00;;;;;;5070586;28;20459;-33
2023/07/07 12:09:38;;;;;;;2.15;1.60;;;21.60;76.20;;;;;;5073758;28;20055;-33
2023/07/07 12:12:08;;;;;;;2.22;1.42;;;21.60;59.80;;;;;;5071594;28;20494;-34
2023/07/07 12:14:40;;;;;;;2.33;1.50;;;21.50;75.30;;;;;;5071787;28;20060;-33
2023/07/07 12:17:06;;;;;;;2.33;1.80;;;21.50;64.20;;;;;;5071452;28;20405;-32
2023/07/07 12:19:36;;;;;;;2.15;1.52;;;22.00;76.40;;;;;;5072011;28;20124;-33
2023/07/07 12:22:05;;;;;;;3.47;1.55;;;21.80;66.50;;;;;;5071772;28;20131;-32
2023/07/07 12:24:38;;;;;;;2.45;1.63;;;22.20;77.30;;;;;;5071616;28;20135;-32
2023/07/07 12:27:08;;;;;;;1.92;1.50;;;21.70;64.70;;;;;;5071702;28;20071;-35
2023/07/07 12:29:39;;;;;;;2.03;1.52;;;21.70;59.90;;;;;;5079471;28;20148;-34
2023/07/07 12:32:07;;;;;;;2.88;1.58;;;22.50;76.60;;;;;;5091832;28;20048;-32
2023/07/07 12:34:36;;;;;;;2.50;1.77;;;21.50;76.20;;;;;;5091739;28;20123;-32
2023/07/07 12:37:04;;;;;;;2.47;1.75;;;21.80;63.70;;;;;;5086383;28;20052;-34
2023/07/07 12:39:31;;;;;;;2.00;1.67;;;;;;;;;;5091844;28;20052;-32
2023/07/07 12:41:57;;;;;;;3.35;1.70;;;21.50;69.50;;;;;;5090211;28;20126;-32
2023/07/07 12:44:24;;;;;;;2.47;1.60;;;22.10;76.40;;;;;;5091880;28;20131;-34
2023/07/07 12:46:52;;;;;;;3.67;1.58;;;21.80;76.60;;;;;;5091898;28;20040;-32
2023/07/07 12:49:22;;;;;;;2.45;1.60;;;22.30;77.40;;;;;;5091787;28;20059;-32
2023/07/07 12:51:53;;;;;;;1.48;1.30;;;21.40;76.50;;;;;;5085862;28;20075;-33
2023/07/07 12:54:30;;;;;;;2.08;1.60;;;21.80;59.90;;;;;;5071353;28;20132;-33
2023/07/07 12:57:01;;;;;;;1.73;1.40;;;22.40;77.40;;;;;;5071487;28;20131;-34
2023/07/07 12:59:37;;;;;;;1.70;1.40;;;21.80;59.90;;;;;;5071664;28;20087;-33
2023/07/07 13:02:15;;;;;;;2.08;1.60;;;21.60;65.50;;;;;;5071313;28;20045;-34
2023/07/07 13:04:48;;;;;;;2.00;1.60;;;21.80;59.90;;;;;;5074383;28;20047;-34
2023/07/07 13:07:19;;;;;;;1.98;1.55;;;21.90;73.10;;;;;;5090634;28;20066;-34